Time;durP1;ratioP1;P1;durP2;ratioP2;P2;SDS_P1;SDS_P2;PMS_P1;PMS_P2;Temp;Humidity;BMP_temperature;BMP_pressure;BME280_temperature;BME280_humidity;BME280_pressure;Samples;Min_cycle;Max_cycle;Signal;HPM_P1;HPM_P2
2022/11/01 00:01:10;;;;;;;44.10;22.87;;;15.90;81.10;;;;;;2361455;57;21563;-64
2022/11/01 00:03:37;;;;;;;47.70;23.85;;;15.90;81.20;;;;;;2362976;57;21033;-64
2022/11/01 00:06:05;;;;;;;44.10;22.55;;;15.90;81.30;;;;;;2363110;57;21512;-65
2022/11/01 00:08:33;;;;;;;44.83;22.85;;;15.90;81.40;;;;;;2363217;57;21377;-64
2022/11/01 00:11:05;;;;;;;48.10;23.73;;;15.90;81.50;;;;;;2363503;57;21598;-64
2022/11/01 00:13:32;;;;;;;45.10;22.37;;;15.90;81.50;;;;;;2363530;57;21033;-64
2022/11/01 00:16:00;;;;;;;48.97;23.67;;;15.90;81.40;;;;;;2362490;57;21579;-65
2022/11/01 00:18:27;;;;;;;45.78;23.00;;;15.90;81.50;;;;;;2361307;57;21033;-64
2022/11/01 00:20:55;;;;;;;46.83;24.25;;;15.80;81.50;;;;;;2362253;57;21507;-64
2022/11/01 00:23:22;;;;;;;46.50;23.40;;;15.80;81.70;;;;;;2362204;57;21510;-64
2022/11/01 00:25:50;;;;;;;48.67;23.25;;;15.80;81.80;;;;;;2361962;57;21136;-64
2022/11/01 00:28:17;;;;;;;52.90;24.35;;;15.80;81.80;;;;;;2362448;57;21096;-65
2022/11/01 00:30:44;;;;;;;46.53;24.75;;;15.80;81.90;;;;;;2362425;57;21037;-64
2022/11/01 00:33:11;;;;;;;45.22;21.52;;;15.80;82.00;;;;;;2361756;57;21649;-64
2022/11/01 00:35:39;;;;;;;55.88;24.85;;;15.80;82.10;;;;;;2361367;57;21643;-64
2022/11/01 00:38:06;;;;;;;44.97;23.50;;;15.70;82.10;;;;;;2362099;57;21057;-64
2022/11/01 00:40:34;;;;;;;44.47;22.23;;;15.70;82.30;;;;;;2362497;57;21528;-64
2022/11/01 00:43:01;;;;;;;42.83;22.40;;;15.70;82.30;;;;;;2362078;57;21689;-64
2022/11/01 00:45:28;;;;;;;48.13;23.25;;;15.70;82.20;;;;;;2362445;57;21037;-64
2022/11/01 00:47:55;;;;;;;41.03;22.85;;;15.70;82.30;;;;;;2362301;57;21069;-64
2022/11/01 00:52:59;;;;;;;37.28;21.33;;;15.70;82.30;;;;;;2356297;57;22074;-65
2022/11/01 00:55:26;;;;;;;42.83;21.45;;;15.70;82.30;;;;;;2347692;57;21645;-64
2022/11/01 00:57:54;;;;;;;44.92;22.90;;;15.80;82.30;;;;;;2346867;57;21101;-65
2022/11/01 01:00:21;;;;;;;43.17;22.70;;;15.70;82.10;;;;;;2346525;57;21119;-64
2022/11/01 01:02:48;;;;;;;47.53;23.87;;;15.70;82.10;;;;;;2346414;57;21062;-64
2022/11/01 01:05:16;;;;;;;39.08;21.30;;;15.70;82.10;;;;;;2345563;57;21054;-64
2022/11/01 01:07:44;;;;;;;43.58;23.90;;;15.70;82.10;;;;;;2345286;57;21552;-64
2022/11/01 01:10:11;;;;;;;44.63;23.73;;;15.80;82.20;;;;;;2346834;57;21125;-64
2022/11/01 01:12:38;;;;;;;44.20;22.70;;;15.70;82.20;;;;;;2346766;57;21529;-65
2022/11/01 01:15:08;;;;;;;43.40;22.10;;;15.80;82.30;;;;;;2346279;57;21093;-64
2022/11/01 01:17:36;;;;;;;41.60;20.98;;;15.80;82.40;;;;;;2346589;57;21540;-64
2022/11/01 01:22:40;;;;;;;44.15;22.17;;;15.80;82.30;;;;;;2356653;57;22074;-64
2022/11/01 01:25:09;;;;;;;43.92;23.77;;;15.70;82.20;;;;;;2346669;57;21033;-64
2022/11/01 01:27:37;;;;;;;42.45;22.77;;;15.70;82.30;;;;;;2346302;57;21065;-64
2022/11/01 01:30:06;;;;;;;42.28;22.30;;;15.70;82.40;;;;;;2345670;57;21508;-64
2022/11/01 01:32:35;;;;;;;46.20;23.95;;;15.70;82.50;;;;;;2344722;57;21097;-64
2022/11/01 01:35:02;;;;;;;43.47;23.02;;;15.70;82.50;;;;;;2345548;57;21544;-65
2022/11/01 01:37:29;;;;;;;42.62;22.55;;;15.70;82.50;;;;;;2345854;57;21520;-64
2022/11/01 01:39:57;;;;;;;41.10;22.60;;;15.70;82.50;;;;;;2345784;57;21527;-64
2022/11/01 01:42:28;;;;;;;42.75;22.98;;;15.70;82.60;;;;;;2346262;57;21054;-64
2022/11/01 01:45:26;;;;;;;46.35;24.27;;;15.70;82.60;;;;;;2345365;57;21054;-64
2022/11/01 01:47:57;;;;;;;45.53;23.77;;;15.80;82.70;;;;;;2345468;57;21619;-65
2022/11/01 01:50:28;;;;;;;40.78;22.95;;;15.80;82.50;;;;;;2346692;57;21532;-65
2022/11/01 01:53:02;;;;;;;39.22;22.75;;;15.80;82.50;;;;;;2345952;57;21549;-65
2022/11/01 01:55:34;;;;;;;45.03;23.02;;;15.80;82.50;;;;;;2345516;57;21505;-65
2022/11/01 01:58:02;;;;;;;44.90;23.35;;;15.80;82.50;;;;;;2345949;57;21066;-65
2022/11/01 02:00:29;;;;;;;41.92;23.50;;;15.80;82.50;;;;;;2346035;57;21806;-65
2022/11/01 02:02:56;;;;;;;40.90;23.95;;;15.80;82.50;;;;;;2346289;57;21607;-65
2022/11/01 02:05:31;;;;;;;49.13;26.98;;;15.80;82.60;;;;;;2345532;57;21084;-65
2022/11/01 02:07:59;;;;;;;47.33;24.12;;;15.80;82.70;;;;;;2345893;57;21082;-65
2022/11/01 02:10:28;;;;;;;47.90;24.90;;;15.80;82.70;;;;;;2346528;57;21113;-65
2022/11/01 02:12:57;;;;;;;47.00;23.77;;;15.80;82.80;;;;;;2344781;57;21116;-65
2022/11/01 02:18:13;;;;;;;46.83;24.70;;;15.80;82.80;;;;;;2331610;57;22638;-64
2022/11/01 02:20:59;;;;;;;44.00;24.40;;;15.80;82.80;;;;;;2347551;57;21512;-64
2022/11/01 02:24:02;;;;;;;47.38;24.77;;;15.80;82.80;;;;;;2347692;57;21556;-64
2022/11/01 02:26:55;;;;;;;51.63;26.50;;;15.90;82.90;;;;;;2301214;57;21639;-64
2022/11/01 02:29:41;;;;;;;49.10;25.90;;;15.80;82.80;;;;;;2348202;57;21513;-65
2022/11/01 02:32:18;;;;;;;45.78;24.75;;;15.90;82.90;;;;;;2348054;57;21106;-65
2022/11/01 02:34:51;;;;;;;50.58;25.37;;;15.80;83.60;;;;;;2348133;57;21042;-65
2022/11/01 02:37:23;;;;;;;42.20;22.85;;;15.80;82.80;;;;;;2345442;57;21125;-65
2022/11/01 02:39:55;;;;;;;47.17;24.40;;;15.80;82.90;;;;;;2347572;57;21584;-66
2022/11/01 02:42:27;;;;;;;50.70;27.15;;;15.90;82.90;;;;;;2347992;57;21041;-65
2022/11/01 02:44:59;;;;;;;47.58;25.52;;;15.90;82.90;;;;;;2348116;57;21489;-65
2022/11/01 02:47:29;;;;;;;51.22;25.88;;;15.90;82.90;;;;;;2347729;57;21069;-65
2022/11/01 02:50:00;;;;;;;59.97;30.90;;;15.90;82.90;;;;;;2347863;57;21469;-65
2022/11/01 02:52:31;;;;;;;55.75;28.83;;;15.90;82.90;;;;;;2347336;57;21544;-65
2022/11/01 02:55:00;;;;;;;49.25;26.52;;;16.00;82.90;;;;;;2346469;57;21057;-65
2022/11/01 02:57:31;;;;;;;52.58;26.70;;;16.00;82.90;;;;;;2347163;57;21108;-65
2022/11/01 03:00:03;;;;;;;59.10;29.50;;;16.00;82.90;;;;;;2348311;57;21636;-65
2022/11/01 03:02:38;;;;;;;57.67;28.58;;;16.00;82.90;;;;;;2347760;57;21536;-65
2022/11/01 03:05:10;;;;;;;57.30;28.55;;;16.00;82.80;;;;;;2348185;57;21018;-65
2022/11/01 03:07:40;;;;;;;60.58;31.08;;;16.00;82.90;;;;;;2347430;57;21196;-65
2022/11/01 03:10:08;;;;;;;59.38;29.87;;;16.00;83.00;;;;;;2346226;57;21045;-64
2022/11/01 03:12:46;;;;;;;54.03;26.87;;;16.00;83.00;;;;;;2346596;57;21038;-65
2022/11/01 03:15:20;;;;;;;60.50;29.70;;;16.00;83.10;;;;;;2347566;57;21493;-65
2022/11/01 03:17:53;;;;;;;59.20;29.63;;;16.00;83.10;;;;;;2346413;57;21616;-64
2022/11/01 03:20:26;;;;;;;54.45;28.08;;;16.00;83.10;;;;;;2347390;57;21041;-65
2022/11/01 03:22:57;;;;;;;52.45;27.85;;;16.00;83.10;;;;;;2347601;57;21223;-65
2022/11/01 03:25:39;;;;;;;61.92;30.77;;;16.00;83.00;;;;;;2347706;57;21105;-65
2022/11/01 03:28:11;;;;;;;59.83;30.58;;;16.00;82.90;;;;;;2346098;57;21642;-65
2022/11/01 03:30:43;;;;;;;63.45;31.02;;;16.10;82.90;;;;;;2346070;57;21077;-65
2022/11/01 03:33:12;;;;;;;62.83;32.38;;;16.00;82.80;;;;;;2346741;57;21112;-65
2022/11/01 03:35:44;;;;;;;54.55;29.33;;;16.10;82.90;;;;;;2346266;57;21053;-65
2022/11/01 03:38:16;;;;;;;62.20;31.70;;;16.10;82.90;;;;;;2346502;57;21496;-65
2022/11/01 03:40:49;;;;;;;69.85;33.35;;;16.10;82.90;;;;;;2346220;57;21640;-65
2022/11/01 03:43:18;;;;;;;61.25;30.85;;;16.10;82.80;;;;;;2346683;57;21551;-65
2022/11/01 03:45:46;;;;;;;58.95;30.45;;;16.10;82.80;;;;;;2345429;57;21097;-65
2022/11/01 03:48:14;;;;;;;70.03;31.45;;;16.10;82.80;;;;;;2346167;57;21041;-65
2022/11/01 03:50:47;;;;;;;74.07;34.85;;;16.00;83.10;;;;;;2346254;57;21105;-65
2022/11/01 03:53:14;;;;;;;;;;;16.10;82.90;;;;;;2350311;57;21145;-65
2022/11/01 03:55:41;;;;;;;63.42;31.55;;;16.10;82.70;;;;;;2346025;57;20314;-65
2022/11/01 03:58:09;;;;;;;70.05;33.05;;;16.10;82.40;;;;;;2346549;57;21034;-65
2022/11/01 04:00:39;;;;;;;74.10;35.95;;;16.00;82.60;;;;;;2346374;57;21519;-65
2022/11/01 04:03:07;;;;;;;64.18;32.72;;;16.00;82.80;;;;;;2346149;57;21501;-65
2022/11/01 04:05:37;;;;;;;63.35;32.72;;;16.00;82.90;;;;;;2346450;57;21580;-65
2022/11/01 04:08:07;;;;;;;68.25;32.38;;;15.90;82.90;;;;;;2346386;57;21113;-66
2022/11/01 04:10:34;;;;;;;65.68;32.70;;;15.90;83.00;;;;;;2346430;57;21026;-65
2022/11/01 04:13:02;;;;;;;69.60;33.83;;;15.90;83.00;;;;;;2347154;57;21034;-65
2022/11/01 04:21:05;;;;;;;59.10;30.48;;;16.00;82.90;;;;;;2346368;57;20990;-65
2022/11/01 04:23:33;;;;;;;65.30;31.12;;;16.00;82.90;;;;;;2347205;57;21065;-65
2022/11/01 04:26:01;;;;;;;59.10;31.73;;;16.00;82.90;;;;;;2345541;57;21046;-65
2022/11/01 04:28:28;;;;;;;63.50;32.97;;;16.00;82.90;;;;;;2347186;57;21485;-65
2022/11/01 04:30:56;;;;;;;67.25;33.00;;;16.00;82.80;;;;;;2346705;57;21548;-65
2022/11/01 04:33:23;;;;;;;73.93;33.88;;;16.00;82.70;;;;;;2345940;57;21033;-66
2022/11/01 04:38:27;;;;;;;63.53;34.95;;;16.00;82.70;;;;;;2336706;57;27764;-64
2022/11/01 04:40:54;;;;;;;58.97;29.95;;;15.90;84.20;;;;;;2347469;57;21525;-64
2022/11/01 04:43:22;;;;;;;62.08;30.90;;;16.00;83.50;;;;;;2346882;57;21583;-64
2022/11/01 04:48:29;;;;;;;57.08;29.63;;;16.00;82.80;;;;;;2356417;57;22089;-64
2022/11/01 04:51:00;;;;;;;56.67;30.52;;;16.10;82.20;;;;;;2347437;57;22093;-64
2022/11/01 04:53:27;;;;;;;66.97;31.05;;;16.10;82.10;;;;;;2346506;57;21093;-64
2022/11/01 04:55:55;;;;;;;56.97;30.58;;;16.10;82.00;;;;;;2347975;57;21034;-65
2022/11/01 04:58:22;;;;;;;64.90;29.80;;;16.10;82.00;;;;;;2346068;57;21030;-64
2022/11/01 05:00:49;;;;;;;54.25;28.17;;;16.10;82.00;;;;;;2345622;57;21050;-64
2022/11/01 05:03:17;;;;;;;69.37;31.85;;;16.10;82.00;;;;;;2346195;57;21108;-64
2022/11/01 05:05:44;;;;;;;62.72;31.98;;;16.10;82.00;;;;;;2345910;57;21544;-64
2022/11/01 05:08:12;;;;;;;61.50;30.50;;;16.10;82.00;;;;;;2346050;57;21289;-64
2022/11/01 05:10:42;;;;;;;59.67;28.65;;;16.10;82.10;;;;;;2346456;57;22158;-64
2022/11/01 05:13:10;;;;;;;59.75;29.70;;;16.10;82.10;;;;;;2345925;57;21587;-64
2022/11/01 05:15:38;;;;;;;61.88;30.35;;;16.10;82.00;;;;;;2345548;57;21116;-64
2022/11/01 05:18:05;;;;;;;59.63;30.33;;;16.10;82.00;;;;;;2345984;57;21579;-64
2022/11/01 05:20:32;;;;;;;57.78;30.00;;;16.10;82.00;;;;;;2346535;57;21137;-64
2022/11/01 05:23:01;;;;;;;60.85;30.67;;;16.10;81.90;;;;;;2346743;57;21564;-64
2022/11/01 05:25:29;;;;;;;60.92;30.70;;;16.10;81.90;;;;;;2346024;57;21588;-65
2022/11/01 05:28:02;;;;;;;63.58;31.90;;;16.10;81.90;;;;;;2346587;57;21565;-65
2022/11/01 05:30:29;;;;;;;64.28;30.88;;;16.10;82.00;;;;;;2346443;57;21041;-65
2022/11/01 05:32:58;;;;;;;56.97;30.52;;;16.10;82.70;;;;;;2346505;57;21541;-65
2022/11/01 05:35:27;;;;;;;58.40;29.12;;;16.00;81.90;;;;;;2344322;57;21505;-64
2022/11/01 05:37:56;;;;;;;56.15;30.00;;;16.00;81.90;;;;;;2345984;57;21528;-64
2022/11/01 05:40:24;;;;;;;60.05;29.52;;;16.10;82.00;;;;;;2346374;57;21592;-65
2022/11/01 05:42:52;;;;;;;54.15;29.65;;;16.10;82.00;;;;;;2346366;57;21094;-64
2022/11/01 05:45:19;;;;;;;62.00;30.42;;;16.10;81.90;;;;;;2345405;57;21126;-65
2022/11/01 05:47:46;;;;;;;57.83;28.85;;;16.10;81.80;;;;;;2344817;57;21204;-65
2022/11/01 05:50:15;;;;;;;69.80;30.00;;;16.10;81.90;;;;;;2346120;57;21520;-64
2022/11/01 05:52:43;;;;;;;56.42;29.70;;;16.10;81.80;;;;;;2346452;57;21584;-64
2022/11/01 05:55:11;;;;;;;57.80;30.10;;;16.10;81.80;;;;;;2345671;57;21596;-64
2022/11/01 05:57:39;;;;;;;55.70;30.00;;;16.10;81.80;;;;;;2346416;57;22211;-65
2022/11/01 06:00:09;;;;;;;56.08;28.12;;;16.10;81.80;;;;;;2344546;57;21592;-64
2022/11/01 06:02:36;;;;;;;58.67;29.33;;;16.10;81.80;;;;;;2345427;57;21549;-64
2022/11/01 06:05:05;;;;;;;55.03;29.65;;;16.10;81.80;;;;;;2344266;57;21057;-64
2022/11/01 06:07:34;;;;;;;57.30;28.58;;;16.10;81.80;;;;;;2344884;57;21069;-64
2022/11/01 06:10:02;;;;;;;60.83;29.80;;;16.10;81.70;;;;;;2345368;57;21054;-64
2022/11/01 06:12:29;;;;;;;55.15;29.45;;;16.10;81.80;;;;;;2345656;57;21509;-63
2022/11/01 06:14:57;;;;;;;53.90;28.00;;;16.10;81.70;;;;;;2345189;57;21667;-63
2022/11/01 06:17:24;;;;;;;54.70;29.40;;;16.10;81.70;;;;;;2345294;57;21109;-63
2022/11/01 06:19:52;;;;;;;62.20;28.17;;;16.10;81.60;;;;;;2344623;57;21042;-63
2022/11/01 06:22:19;;;;;;;54.33;28.50;;;16.10;81.60;;;;;;2345343;57;22076;-63
2022/11/01 06:27:23;;;;;;;51.50;26.27;;;16.10;81.60;;;;;;2339428;57;22095;-63
2022/11/01 06:29:50;;;;;;;52.90;26.15;;;16.10;81.50;;;;;;2346883;57;21152;-63
2022/11/01 06:32:17;;;;;;;48.65;25.05;;;16.20;81.50;;;;;;2347844;57;21109;-63
2022/11/01 06:34:44;;;;;;;46.90;24.33;;;16.20;81.50;;;;;;2347581;57;21076;-66
2022/11/01 06:37:12;;;;;;;52.10;25.95;;;16.20;81.40;;;;;;2347467;57;21062;-63
2022/11/01 06:39:39;;;;;;;50.25;27.25;;;16.20;81.20;;;;;;2348400;57;21524;-63
2022/11/01 06:42:08;;;;;;;43.75;24.40;;;16.20;81.40;;;;;;2348279;57;21577;-63
2022/11/01 06:44:35;;;;;;;44.35;25.20;;;16.20;81.40;;;;;;2348165;57;21592;-63
2022/11/01 06:47:02;;;;;;;51.00;26.52;;;16.20;81.30;;;;;;2347900;57;21057;-63
2022/11/01 06:49:30;;;;;;;44.45;24.87;;;16.20;81.30;;;;;;2348239;57;21033;-63
2022/11/01 06:51:57;;;;;;;52.03;26.45;;;16.30;81.20;;;;;;2347019;57;21548;-63
2022/11/01 06:54:25;;;;;;;51.78;26.65;;;16.30;81.10;;;;;;2347093;57;21046;-63
2022/11/01 06:56:52;;;;;;;55.28;28.42;;;16.20;81.00;;;;;;2347018;57;21176;-63
2022/11/01 06:59:19;;;;;;;46.85;26.15;;;16.30;81.10;;;;;;2347994;57;21778;-63
2022/11/01 07:01:47;;;;;;;49.22;26.70;;;16.30;81.10;;;;;;2347539;57;21889;-63
2022/11/01 07:04:14;;;;;;;52.30;27.10;;;16.30;81.10;;;;;;2347880;57;21042;-63
2022/11/01 07:06:41;;;;;;;52.22;27.87;;;16.30;81.00;;;;;;2346942;57;21050;-63
2022/11/01 07:09:09;;;;;;;48.83;25.73;;;16.30;81.00;;;;;;2347138;57;21037;-63
2022/11/01 07:11:36;;;;;;;53.05;26.80;;;16.30;81.10;;;;;;2347799;57;21113;-63
2022/11/01 07:14:04;;;;;;;45.08;24.90;;;16.30;81.10;;;;;;2347610;57;21694;-63
2022/11/01 07:16:32;;;;;;;50.45;26.27;;;16.30;81.10;;;;;;2347362;57;21720;-63
2022/11/01 07:18:59;;;;;;;53.28;26.37;;;16.30;81.00;;;;;;2347748;57;21078;-63
2022/11/01 07:21:27;;;;;;;49.92;27.02;;;16.30;80.90;;;;;;2347767;57;21632;-63
2022/11/01 07:23:54;;;;;;;46.47;25.88;;;16.40;80.70;;;;;;2347636;57;21600;-63
2022/11/01 07:26:22;;;;;;;42.70;24.58;;;16.40;80.80;;;;;;2346457;57;21062;-63
2022/11/01 07:28:49;;;;;;;45.70;26.48;;;16.40;80.80;;;;;;2347726;57;21038;-63
2022/11/01 07:31:17;;;;;;;44.30;23.98;;;16.40;80.60;;;;;;2347959;57;21061;-64
2022/11/01 07:33:44;;;;;;;44.55;24.87;;;16.40;80.60;;;;;;2347739;57;21025;-63
2022/11/01 07:36:11;;;;;;;49.75;26.87;;;16.40;80.60;;;;;;2347581;57;22694;-64
2022/11/01 07:38:38;;;;;;;50.45;24.80;;;16.50;80.70;;;;;;2344804;57;21050;-63
2022/11/01 07:41:06;;;;;;;48.30;25.60;;;16.50;80.60;;;;;;2345782;57;21021;-63
2022/11/01 07:43:34;;;;;;;41.28;24.85;;;16.50;80.50;;;;;;2346297;57;21046;-63
2022/11/01 07:46:04;;;;;;;44.00;25.08;;;16.50;80.60;;;;;;2346497;57;21650;-63
2022/11/01 07:48:32;;;;;;;44.47;24.67;;;16.50;80.60;;;;;;2346825;57;21124;-63
2022/11/01 07:51:01;;;;;;;45.00;25.15;;;16.60;80.60;;;;;;2345272;57;21093;-63
2022/11/01 07:56:06;;;;;;;51.75;27.83;;;16.60;80.50;;;;;;2333755;57;38648;-63
2022/11/01 07:58:34;;;;;;;43.50;25.20;;;16.50;81.60;;;;;;2347486;57;21086;-63
2022/11/01 08:01:05;;;;;;;42.62;23.67;;;16.60;81.10;;;;;;2345853;57;21612;-63
2022/11/01 08:03:32;;;;;;;39.15;22.83;;;16.70;80.70;;;;;;2345189;57;21117;-63
2022/11/01 08:08:36;;;;;;;42.45;21.98;;;16.80;79.90;;;;;;2355094;57;22102;-63
2022/11/01 08:11:04;;;;;;;41.70;21.52;;;16.80;79.80;;;;;;2345874;57;21616;-63
2022/11/01 08:13:31;;;;;;;42.58;23.27;;;16.90;79.90;;;;;;2346614;57;21054;-63
2022/11/01 08:18:34;;;;;;;42.95;25.70;;;16.90;79.90;;;;;;2335450;57;27800;-63
2022/11/01 08:21:01;;;;;;;41.20;22.33;;;16.90;81.00;;;;;;2345802;57;21089;-63
2022/11/01 08:23:29;;;;;;;35.58;21.02;;;17.00;80.50;;;;;;2346578;57;21045;-63
2022/11/01 08:25:58;;;;;;;40.33;21.75;;;17.00;79.80;;;;;;2345543;57;21085;-63
2022/11/01 08:28:28;;;;;;;31.35;19.17;;;17.10;78.90;;;;;;2344552;57;21038;-63
2022/11/01 08:30:56;;;;;;;38.92;21.25;;;17.10;78.90;;;;;;2343566;57;21580;-63
2022/11/01 08:33:23;;;;;;;36.33;20.20;;;17.10;78.80;;;;;;2342498;57;21050;-64
2022/11/01 08:35:50;;;;;;;38.38;21.35;;;17.20;78.90;;;;;;2346335;57;21829;-64
2022/11/01 08:38:18;;;;;;;32.80;18.98;;;17.20;78.90;;;;;;2345244;57;21058;-64
2022/11/01 08:40:46;;;;;;;32.28;19.58;;;17.20;78.70;;;;;;2347057;57;21517;-64
2022/11/01 08:43:14;;;;;;;36.83;19.92;;;17.30;78.70;;;;;;2346504;57;21584;-63
2022/11/01 08:45:41;;;;;;;32.22;19.15;;;17.30;78.70;;;;;;2346948;57;22208;-63
2022/11/01 08:48:09;;;;;;;32.03;18.65;;;17.30;78.60;;;;;;2345986;57;21046;-63
2022/11/01 08:50:37;;;;;;;31.75;17.42;;;17.40;78.60;;;;;;2346140;57;21049;-63
2022/11/01 08:53:06;;;;;;;33.97;17.75;;;17.40;78.30;;;;;;2346956;57;21621;-63
2022/11/01 08:55:33;;;;;;;30.30;18.15;;;17.50;78.30;;;;;;2346746;57;21524;-63
2022/11/01 08:58:01;;;;;;;26.30;15.88;;;17.50;78.20;;;;;;2346476;57;21595;-63
2022/11/01 09:00:28;;;;;;;28.15;15.77;;;17.60;78.20;;;;;;2346062;57;21533;-63
2022/11/01 09:02:56;;;;;;;31.20;15.57;;;17.60;77.80;;;;;;2345997;57;21081;-63
2022/11/01 09:05:23;;;;;;;27.05;15.40;;;17.60;77.50;;;;;;2346562;57;21049;-63
2022/11/01 09:07:56;;;;;;;28.58;15.65;;;17.70;77.30;;;;;;2345662;57;21606;-63
2022/11/01 09:10:23;;;;;;;27.70;14.57;;;17.70;77.00;;;;;;2344646;57;21192;-63
2022/11/01 09:12:52;;;;;;;26.00;15.50;;;17.80;76.90;;;;;;2346266;57;21041;-63
2022/11/01 09:15:19;;;;;;;26.15;14.70;;;17.80;77.00;;;;;;2344941;57;21551;-63
2022/11/01 09:17:46;;;;;;;23.25;13.77;;;17.90;76.70;;;;;;2345085;57;21533;-63
2022/11/01 09:20:16;;;;;;;20.20;11.55;;;17.90;76.70;;;;;;2346506;57;21113;-63
2022/11/01 09:22:43;;;;;;;21.10;12.13;;;17.90;76.40;;;;;;2346779;57;21125;-63
2022/11/01 09:25:11;;;;;;;23.60;11.95;;;18.00;76.30;;;;;;2346824;57;21101;-63
2022/11/01 09:27:38;;;;;;;22.87;11.45;;;18.00;76.30;;;;;;2346333;57;21556;-63
2022/11/01 09:30:08;;;;;;;21.45;11.52;;;18.00;75.80;;;;;;2345851;57;21145;-63
2022/11/01 09:32:35;;;;;;;21.35;10.68;;;18.00;75.40;;;;;;2345890;57;21097;-63
2022/11/01 09:35:04;;;;;;;17.48;10.60;;;18.00;74.80;;;;;;2344538;57;21493;-63
2022/11/01 09:37:32;;;;;;;15.63;9.10;;;18.00;74.70;;;;;;2345344;57;21655;-63
2022/11/01 09:39:59;;;;;;;18.55;10.27;;;18.00;74.60;;;;;;2345508;57;21596;-63
2022/11/01 09:42:31;;;;;;;18.05;9.38;;;18.00;74.60;;;;;;2345732;57;21030;-63
2022/11/01 09:45:04;;;;;;;22.75;9.55;;;18.10;74.80;;;;;;2345629;57;21112;-63
2022/11/01 09:50:18;;;;;;;16.15;8.40;;;18.00;74.50;;;;;;2356267;57;22113;-63
2022/11/01 09:55:33;;;;;;;14.82;7.87;;;18.10;74.90;;;;;;2356250;57;22114;-64
2022/11/01 09:58:08;;;;;;;16.92;8.15;;;18.20;74.70;;;;;;2370409;56;21538;-63
2022/11/01 10:00:45;;;;;;;12.07;7.55;;;18.20;74.80;;;;;;2375110;56;21123;-63
2022/11/01 10:03:33;;;;;;;14.10;7.78;;;18.20;74.80;;;;;;2372807;56;21600;-64
2022/11/01 10:06:06;;;;;;;15.30;7.45;;;18.20;74.70;;;;;;2372426;56;22133;-63
2022/11/01 10:11:27;;;;;;;15.77;7.65;;;18.30;74.70;;;;;;2354465;57;22066;-64
2022/11/01 10:14:05;;;;;;;10.77;6.78;;;18.40;74.80;;;;;;2346088;57;21608;-64
2022/11/01 10:19:14;;;;;;;14.95;6.53;;;18.50;74.20;;;;;;2355245;57;22644;-63
2022/11/01 10:24:28;;;;;;;9.27;5.32;;;18.50;73.90;;;;;;2352875;57;22620;-63
2022/11/01 10:29:36;;;;;;;12.05;6.15;;;18.60;73.70;;;;;;2331876;57;27877;-63
2022/11/01 10:32:08;;;;;;;10.40;5.60;;;18.60;73.20;;;;;;2344261;57;21859;-63
2022/11/01 10:34:38;;;;;;;10.90;5.28;;;18.70;72.80;;;;;;2341337;57;21045;-63
2022/11/01 10:37:20;;;;;;;7.82;5.12;;;18.70;72.20;;;;;;2358529;56;21089;-63
2022/11/01 10:39:54;;;;;;;12.55;4.97;;;18.80;72.10;;;;;;2373253;56;21616;-63
2022/11/01 10:42:22;;;;;;;9.75;4.65;;;18.80;71.80;;;;;;2372047;56;21075;-63
2022/11/01 10:44:54;;;;;;;9.57;5.35;;;18.80;71.50;;;;;;2372991;56;21058;-63
2022/11/01 10:47:23;;;;;;;9.15;4.90;;;18.80;71.30;;;;;;2373357;56;21055;-63
2022/11/01 10:52:35;;;;;;;10.38;4.82;;;18.90;71.20;;;;;;2355419;57;22137;-62
2022/11/01 10:55:04;;;;;;;15.10;5.32;;;18.80;70.70;;;;;;2347082;57;21180;-64
2022/11/01 11:00:17;;;;;;;6.32;4.20;;;18.80;70.10;;;;;;2354942;57;22599;-64
2022/11/01 11:02:47;;;;;;;7.65;4.22;;;18.90;70.20;;;;;;2345479;57;21132;-64
2022/11/01 11:05:16;;;;;;;8.60;4.40;;;18.90;70.10;;;;;;2345896;57;21520;-64
2022/11/01 11:07:44;;;;;;;10.15;4.37;;;18.90;69.90;;;;;;2363148;56;21901;-64
2022/11/01 11:10:19;;;;;;;8.18;3.80;;;19.00;69.80;;;;;;2372157;56;21110;-63
2022/11/01 11:12:50;;;;;;;8.35;4.12;;;19.00;69.80;;;;;;2371218;56;21727;-64
2022/11/01 11:17:58;;;;;;;6.12;3.60;;;19.00;68.30;;;;;;2331311;57;22059;-62
2022/11/01 11:20:29;;;;;;;7.40;3.50;;;19.00;67.50;;;;;;2346944;57;21041;-63
2022/11/01 11:23:00;;;;;;;6.30;3.55;;;19.10;67.70;;;;;;2345258;57;21053;-63
2022/11/01 11:25:34;;;;;;;8.18;3.42;;;19.10;67.00;;;;;;2345727;57;21648;-63
2022/11/01 11:28:03;;;;;;;7.07;2.78;;;19.10;67.00;;;;;;2347698;57;21524;-63
2022/11/01 11:30:32;;;;;;;8.52;3.00;;;19.10;64.40;;;;;;2347064;57;21117;-63
2022/11/01 11:33:02;;;;;;;7.50;2.47;;;19.10;62.70;;;;;;2346147;57;21045;-63
2022/11/01 11:35:31;;;;;;;3.90;2.05;;;19.10;63.20;;;;;;2345563;57;21545;-64
2022/11/01 11:38:01;;;;;;;4.50;1.85;;;19.20;62.50;;;;;;2346344;57;21053;-63
2022/11/01 11:40:40;;;;;;;3.95;1.62;;;19.20;61.70;;;;;;2346158;57;21585;-64
2022/11/01 11:43:23;;;;;;;7.15;1.73;;;19.20;59.90;;;;;;2357399;52;22196;-63
2022/11/01 11:46:05;;;;;;;3.10;1.40;;;19.30;59.10;;;;;;2404712;53;73926;-81
2022/11/01 11:48:32;;;;;;;8.07;2.58;;;19.30;59.40;;;;;;2294518;58;21147;-81
2022/11/01 11:51:01;;;;;;;5.72;1.37;;;19.30;59.10;;;;;;2294195;58;21120;-80
2022/11/01 11:53:29;;;;;;;4.70;1.40;;;19.20;57.70;;;;;;2294830;58;21584;-81
2022/11/01 11:55:58;;;;;;;6.10;1.45;;;19.20;57.60;;;;;;2306108;58;21125;-80
2022/11/01 11:58:35;;;;;;;3.53;1.60;;;19.20;58.50;;;;;;2325100;58;21671;-80
2022/11/01 12:01:04;;;;;;;7.70;1.65;;;19.20;57.60;;;;;;2324165;58;21553;-80
2022/11/01 12:03:42;;;;;;;6.32;1.40;;;19.20;58.20;;;;;;2325087;58;21323;-80
2022/11/01 12:06:16;;;;;;;6.65;1.37;;;19.20;57.60;;;;;;2324631;58;21617;-79
2022/11/01 12:08:46;;;;;;;4.30;1.23;;;19.20;56.50;;;;;;2324321;58;21176;-80
2022/11/01 12:11:14;;;;;;;3.62;1.45;;;19.30;57.30;;;;;;2324163;58;21109;-81
2022/11/01 12:13:43;;;;;;;4.35;1.60;;;19.30;57.10;;;;;;2324996;58;21041;-81
2022/11/01 12:16:19;;;;;;;7.20;1.37;;;19.30;57.00;;;;;;2324322;57;21125;-82
2022/11/01 12:18:55;;;;;;;3.87;1.30;;;19.40;56.00;;;;;;2324377;58;21120;-81
2022/11/01 12:21:25;;;;;;;6.55;1.35;;;19.40;55.50;;;;;;2324692;58;21653;-81
2022/11/01 12:23:58;;;;;;;4.05;1.40;;;19.30;54.60;;;;;;2324749;58;21077;-81
2022/11/01 12:26:27;;;;;;;3.65;1.42;;;19.40;55.30;;;;;;2324737;58;21074;-80
2022/11/01 12:29:05;;;;;;;6.40;1.60;;;19.40;55.80;;;;;;2324178;58;21070;-82
2022/11/01 12:31:33;;;;;;;7.60;1.65;;;19.40;55.20;;;;;;2323990;58;21576;-80
2022/11/01 12:34:07;;;;;;;7.72;1.80;;;19.40;53.60;;;;;;2323542;58;21648;-80
2022/11/01 12:39:31;;;;;;;9.52;2.00;;;19.30;53.70;;;;;;2357412;57;22104;-53
2022/11/01 12:42:03;;;;;;;5.62;1.62;;;19.30;55.50;;;;;;2375100;56;21301;-52
2022/11/01 12:44:34;;;;;;;8.15;1.62;;;19.30;54.60;;;;;;2376524;56;21027;-50
2022/11/01 12:47:09;;;;;;;8.35;1.92;;;19.30;55.20;;;;;;2376075;56;21120;-51
2022/11/01 12:52:25;;;;;;;8.73;1.65;;;19.30;55.20;;;;;;2300376;58;22079;-54
2022/11/01 12:55:02;;;;;;;8.05;1.75;;;19.30;55.10;;;;;;2291001;58;21063;-53
2022/11/01 12:57:31;;;;;;;10.60;2.22;;;19.40;55.70;;;;;;2309950;58;21209;-51
2022/11/01 13:00:01;;;;;;;5.85;1.80;;;19.40;55.50;;;;;;2317894;58;22161;-51
2022/11/01 13:02:53;;;;;;;7.70;1.70;;;19.40;55.40;;;;;;2317935;58;21136;-51
2022/11/01 13:05:24;;;;;;;5.22;1.70;;;19.40;53.90;;;;;;2318626;58;21576;-48
2022/11/01 13:08:04;;;;;;;7.03;1.55;;;19.40;53.80;;;;;;2318816;58;21120;-49
2022/11/01 13:10:35;;;;;;;5.07;1.42;;;19.30;53.50;;;;;;2319018;58;21556;-51
2022/11/01 13:13:13;;;;;;;5.60;1.83;;;19.30;52.40;;;;;;2317796;58;21663;-50
2022/11/01 13:18:28;;;;;;;7.37;1.62;;;19.30;51.80;;;;;;2378937;56;22480;-49
2022/11/01 13:21:06;;;;;;;8.60;2.28;;;19.30;52.50;;;;;;2345655;57;22000;-49
2022/11/01 13:23:37;;;;;;;7.47;1.67;;;19.30;52.80;;;;;;2344627;57;21485;-50
2022/11/01 13:26:12;;;;;;;8.20;1.98;;;19.20;52.60;;;;;;2344826;57;21757;-52
2022/11/01 13:31:49;;;;;;;10.48;2.30;;;19.20;53.10;;;;;;2354756;57;22061;-51
2022/11/01 13:34:44;;;;;;;10.98;2.05;;;19.20;53.10;;;;;;2343802;57;21120;-50
2022/11/01 13:37:20;;;;;;;8.68;2.25;;;19.20;52.90;;;;;;2361649;56;21545;-48
2022/11/01 13:42:30;;;;;;;7.12;1.77;;;19.10;52.40;;;;;;2353114;57;22753;-51
2022/11/01 13:45:20;;;;;;;7.40;1.80;;;19.10;53.10;;;;;;2347256;57;21531;-48
2022/11/01 13:50:45;;;;;;;8.43;1.95;;;19.10;53.10;;;;;;2351855;57;22057;-47
2022/11/01 13:53:17;;;;;;;12.80;1.95;;;19.00;52.90;;;;;;2346780;57;22562;-48
2022/11/01 13:55:51;;;;;;;9.32;1.70;;;19.00;52.80;;;;;;2344119;57;21787;-47
2022/11/01 13:58:19;;;;;;;10.25;2.03;;;19.00;52.80;;;;;;2373161;56;21035;-47